Time;durP1;ratioP1;P1;durP2;ratioP2;P2;SDS_P1;SDS_P2;PMS_P1;PMS_P2;Temp;Humidity;BMP_temperature;BMP_pressure;BME280_temperature;BME280_humidity;BME280_pressure;Samples;Min_cycle;Max_cycle;Signal;HPM_P1;HPM_P2
2022/08/04 00:02:09;;;;;;;12.65;7.03;;;20.90;99.90;;;;;;5017261;28;20136;-90
2022/08/04 00:04:43;;;;;;;12.73;6.88;;;20.90;99.90;;;;;;5015701;28;20049;-89
2022/08/04 00:07:27;;;;;;;12.48;8.02;;;20.90;99.90;;;;;;5032347;28;20061;-90
2022/08/04 00:10:04;;;;;;;12.57;6.97;;;20.90;99.90;;;;;;5033267;28;20049;-90
2022/08/04 00:12:32;;;;;;;12.77;6.88;;;20.80;99.90;;;;;;5016390;28;20046;-89
2022/08/04 00:15:00;;;;;;;19.33;7.88;;;20.80;99.90;;;;;;5015700;28;20111;-89
2022/08/04 00:17:54;;;;;;;15.10;7.65;;;20.80;99.90;;;;;;5016301;28;20091;-90
2022/08/04 00:20:20;;;;;;;17.08;7.07;;;20.80;99.90;;;;;;5017883;28;20524;-89
2022/08/04 00:22:46;;;;;;;14.82;7.45;;;20.80;99.90;;;;;;5015695;28;20111;-89
2022/08/04 00:25:12;;;;;;;18.13;7.63;;;20.80;99.90;;;;;;5031403;28;20393;-89
2022/08/04 00:27:38;;;;;;;11.52;6.57;;;20.70;99.90;;;;;;4998700;28;20048;-90
2022/08/04 00:30:05;;;;;;;15.93;7.78;;;20.70;99.90;;;;;;5015372;28;20046;-90
2022/08/04 00:32:30;;;;;;;14.00;6.57;;;20.70;99.90;;;;;;5015657;28;20067;-89
2022/08/04 00:34:59;;;;;;;14.93;7.22;;;20.70;99.90;;;;;;5015097;28;20494;-90
2022/08/04 00:37:25;;;;;;;13.05;7.07;;;20.70;99.90;;;;;;5014989;28;20045;-89
2022/08/04 00:39:52;;;;;;;16.77;7.68;;;20.70;99.90;;;;;;4999684;28;20049;-90
2022/08/04 00:42:41;;;;;;;13.48;6.63;;;20.70;99.90;;;;;;4998567;28;20084;-89
2022/08/04 00:45:29;;;;;;;13.10;6.93;;;20.70;99.90;;;;;;5015480;28;20119;-91
2022/08/04 00:47:55;;;;;;;14.23;7.47;;;20.60;99.90;;;;;;5015130;28;20049;-90
2022/08/04 00:50:29;;;;;;;15.43;8.32;;;20.60;99.90;;;;;;5031328;28;20099;-90
2022/08/04 00:53:11;;;;;;;15.82;7.28;;;20.60;99.90;;;;;;5031645;28;20045;-89
2022/08/04 00:55:55;;;;;;;20.50;7.65;;;20.60;99.90;;;;;;5015378;28;20049;-88
2022/08/04 00:58:36;;;;;;;10.50;6.40;;;20.60;99.90;;;;;;4998561;28;20057;-89
2022/08/04 01:01:04;;;;;;;14.63;6.50;;;20.60;99.90;;;;;;5031097;28;20490;-89
2022/08/04 01:03:56;;;;;;;16.85;6.85;;;20.60;99.90;;;;;;5014638;28;20107;-90
2022/08/04 01:06:49;;;;;;;14.85;7.82;;;20.60;99.90;;;;;;5023189;28;20061;-91
2022/08/04 01:09:32;;;;;;;15.70;7.25;;;20.50;99.90;;;;;;5010434;28;20064;-91
2022/08/04 01:12:23;;;;;;;19.08;8.07;;;20.40;99.90;;;;;;5040857;28;20053;-91
2022/08/04 01:15:03;;;;;;;15.23;7.50;;;20.40;99.90;;;;;;5015533;28;20065;-90
2022/08/04 01:17:34;;;;;;;16.10;7.28;;;20.40;99.90;;;;;;5014434;28;20436;-89
2022/08/04 01:20:06;;;;;;;14.63;6.93;;;20.40;99.90;;;;;;5031061;28;20068;-89
2022/08/04 01:22:32;;;;;;;10.90;7.30;;;20.40;99.90;;;;;;5014504;28;20056;-90
2022/08/04 01:25:19;;;;;;;10.38;7.32;;;20.40;99.90;;;;;;5031211;28;20049;-90
2022/08/04 01:27:57;;;;;;;13.73;7.43;;;20.40;99.90;;;;;;5031056;28;20045;-90
2022/08/04 01:30:26;;;;;;;16.70;8.20;;;20.30;99.90;;;;;;5030303;28;20049;-89
2022/08/04 01:32:56;;;;;;;13.85;7.40;;;20.20;99.90;;;;;;5014519;28;20050;-89
2022/08/04 01:35:42;;;;;;;17.80;7.72;;;20.20;99.90;;;;;;5029038;28;20077;-90
2022/08/04 01:38:34;;;;;;;11.02;7.63;;;20.30;99.90;;;;;;5015119;28;20064;-89
2022/08/04 01:41:03;;;;;;;13.48;7.47;;;20.30;99.90;;;;;;5005657;28;20382;-89
2022/08/04 01:43:31;;;;;;;14.18;7.65;;;20.30;99.90;;;;;;5030077;28;20057;-88
2022/08/04 01:45:58;;;;;;;14.13;8.27;;;20.30;99.90;;;;;;5030536;28;20435;-87
2022/08/04 01:48:25;;;;;;;13.82;7.72;;;20.30;99.90;;;;;;5012889;28;20397;-88
2022/08/04 01:50:52;;;;;;;12.20;7.75;;;20.30;99.90;;;;;;5027857;28;20049;-88
2022/08/04 01:53:18;;;;;;;12.48;7.22;;;20.30;99.90;;;;;;5013305;28;20650;-89
2022/08/04 01:55:45;;;;;;;15.57;7.68;;;20.30;99.90;;;;;;5014042;28;20061;-89
2022/08/04 01:58:11;;;;;;;13.82;7.18;;;20.30;99.90;;;;;;5011418;28;20041;-89
2022/08/04 02:00:36;;;;;;;14.35;7.65;;;20.20;99.90;;;;;;5014626;28;20049;-87
2022/08/04 02:03:02;;;;;;;12.50;7.35;;;20.20;99.90;;;;;;5014169;28;20053;-87
2022/08/04 02:05:28;;;;;;;15.07;7.50;;;20.20;99.90;;;;;;5030303;28;20053;-89
2022/08/04 02:08:06;;;;;;;16.65;8.40;;;20.20;99.90;;;;;;5013835;28;20088;-88
2022/08/04 02:10:41;;;;;;;14.93;8.05;;;20.10;99.90;;;;;;5013488;28;20060;-88
2022/08/04 02:13:34;;;;;;;11.13;7.55;;;20.00;99.90;;;;;;5013884;28;20045;-88
2022/08/04 02:16:32;;;;;;;11.47;7.20;;;19.90;99.90;;;;;;5030181;28;20103;-87
2022/08/04 02:19:35;;;;;;;11.35;7.68;;;19.90;99.90;;;;;;5015712;28;20731;-88
2022/08/04 02:22:08;;;;;;;16.73;8.43;;;19.80;99.90;;;;;;5013880;28;20606;-88
2022/08/04 02:24:34;;;;;;;11.80;8.18;;;19.70;99.90;;;;;;4997144;28;20053;-87
2022/08/04 02:27:00;;;;;;;16.23;8.13;;;19.60;99.90;;;;;;5013718;28;20049;-87
2022/08/04 02:29:35;;;;;;;13.25;9.20;;;19.50;99.90;;;;;;5029501;28;20084;-88
2022/08/04 02:32:05;;;;;;;12.43;8.20;;;19.50;99.90;;;;;;5013724;28;20046;-87
2022/08/04 02:34:43;;;;;;;13.10;8.15;;;19.40;99.90;;;;;;5013066;28;20045;-87
2022/08/04 02:37:09;;;;;;;15.90;8.35;;;19.30;99.90;;;;;;4997569;28;20065;-87
2022/08/04 02:39:35;;;;;;;15.50;8.82;;;19.10;99.90;;;;;;5029933;28;20140;-87
2022/08/04 02:42:04;;;;;;;14.57;9.20;;;19.10;99.90;;;;;;5013323;28;20525;-87
2022/08/04 02:44:30;;;;;;;16.88;9.00;;;19.00;99.90;;;;;;4997218;28;20052;-87
2022/08/04 02:46:56;;;;;;;14.13;9.13;;;19.00;99.90;;;;;;5030088;28;20046;-87
2022/08/04 02:49:22;;;;;;;16.60;9.30;;;18.90;99.90;;;;;;4997212;28;20064;-86
2022/08/04 02:51:52;;;;;;;15.18;8.80;;;18.80;99.90;;;;;;5029932;28;20060;-87
2022/08/04 02:54:21;;;;;;;15.05;8.82;;;18.80;99.90;;;;;;5013519;28;20072;-87
2022/08/04 02:56:47;;;;;;;17.08;9.85;;;18.70;99.90;;;;;;5013596;28;20103;-87
2022/08/04 02:59:13;;;;;;;16.92;9.88;;;18.60;99.90;;;;;;5030127;28;20045;-87
2022/08/04 03:01:39;;;;;;;15.18;9.73;;;18.60;99.90;;;;;;5029821;28;20076;-87
2022/08/04 03:04:26;;;;;;;14.77;9.70;;;18.60;99.90;;;;;;5013415;28;20552;-87
2022/08/04 03:06:57;;;;;;;14.93;9.35;;;18.50;99.90;;;;;;5013392;28;20062;-87
2022/08/04 03:09:47;;;;;;;14.45;9.80;;;18.50;99.90;;;;;;5030013;28;20051;-88
2022/08/04 03:12:37;;;;;;;19.35;10.15;;;18.50;99.90;;;;;;5013816;28;20053;-87
2022/08/04 03:15:24;;;;;;;12.55;9.68;;;18.40;99.90;;;;;;5013058;28;20508;-87
2022/08/04 03:18:14;;;;;;;16.90;10.15;;;18.40;99.90;;;;;;5029940;28;20041;-88
2022/08/04 03:21:18;;;;;;;18.63;10.20;;;18.40;99.90;;;;;;5016294;28;20112;-90
2022/08/04 03:24:08;;;;;;;16.00;9.68;;;18.40;99.90;;;;;;5013471;28;20057;-91
2022/08/04 03:26:39;;;;;;;13.65;9.88;;;18.40;99.90;;;;;;5013907;28;20040;-91
2022/08/04 03:29:26;;;;;;;14.32;10.23;;;18.40;99.90;;;;;;5014456;28;20049;-89
2022/08/04 03:32:30;;;;;;;18.90;10.65;;;18.20;99.90;;;;;;5030586;28;20044;-90
2022/08/04 03:35:39;;;;;;;16.77;9.90;;;18.30;99.90;;;;;;5028125;28;20045;-91
2022/08/04 03:38:31;;;;;;;18.23;11.15;;;18.30;99.90;;;;;;4972376;28;20046;-91
2022/08/04 03:41:05;;;;;;;19.33;10.30;;;18.30;99.90;;;;;;5012673;28;20057;-91
2022/08/04 03:43:57;;;;;;;16.45;10.60;;;18.30;99.90;;;;;;5010796;28;20058;-91
2022/08/04 03:46:59;;;;;;;17.58;11.05;;;18.30;99.90;;;;;;5010256;28;20133;-90
2022/08/04 03:49:48;;;;;;;17.02;9.85;;;18.20;99.90;;;;;;5009542;28;20541;-89
2022/08/04 03:55:23;;;;;;;19.15;10.63;;;18.20;99.90;;;;;;5009781;28;20089;-91
2022/08/04 03:57:54;;;;;;;17.45;10.73;;;18.20;99.90;;;;;;5010218;28;20045;-90
2022/08/04 04:00:20;;;;;;;21.20;11.45;;;18.20;99.90;;;;;;5016632;28;20046;-91
2022/08/04 04:03:04;;;;;;;15.68;10.82;;;18.20;99.90;;;;;;5022409;28;20140;-91
2022/08/04 04:05:30;;;;;;;;;;;18.20;99.90;;;;;;5022753;28;20046;-92
2022/08/04 04:08:33;;;;;;;18.10;10.55;;;18.30;99.90;;;;;;5018920;28;19975;-90
2022/08/04 04:11:20;;;;;;;21.70;11.18;;;18.30;99.90;;;;;;5038039;28;20172;-91
2022/08/04 04:14:03;;;;;;;18.85;11.18;;;18.30;99.90;;;;;;5032486;28;20070;-92
2022/08/04 04:16:31;;;;;;;18.00;11.23;;;18.30;99.90;;;;;;5000117;28;20061;-89
2022/08/04 04:19:21;;;;;;;17.48;11.75;;;18.40;99.90;;;;;;5019094;28;20136;-90
2022/08/04 04:22:38;;;;;;;16.55;10.80;;;18.50;99.90;;;;;;5022882;28;20046;-90
2022/08/04 04:25:04;;;;;;;17.90;11.27;;;18.50;99.90;;;;;;5013909;28;20060;-90
2022/08/04 04:27:32;;;;;;;16.83;11.00;;;18.60;99.90;;;;;;5010716;28;20120;-90
2022/08/04 04:30:05;;;;;;;17.58;10.93;;;18.60;99.90;;;;;;5012187;28;20057;-91
2022/08/04 04:33:13;;;;;;;15.55;11.00;;;18.70;99.90;;;;;;5028705;28;20053;-90
2022/08/04 04:35:54;;;;;;;15.82;11.40;;;18.80;99.90;;;;;;5017751;28;20056;-91
2022/08/04 04:38:51;;;;;;;19.23;10.77;;;18.90;99.90;;;;;;5029805;28;20073;-90
2022/08/04 04:41:35;;;;;;;18.88;10.02;;;18.90;99.90;;;;;;5016766;28;20118;-90
2022/08/04 04:44:19;;;;;;;17.58;11.75;;;19.00;99.90;;;;;;5033399;28;20042;-90
2022/08/04 04:46:47;;;;;;;18.67;10.85;;;19.20;99.90;;;;;;5032867;28;20038;-90
2022/08/04 04:49:58;;;;;;;19.10;10.63;;;19.40;99.90;;;;;;4998728;28;20062;-91
2022/08/04 04:52:44;;;;;;;18.80;10.65;;;19.80;99.90;;;;;;5018707;28;20058;-90
2022/08/04 04:55:18;;;;;;;19.65;10.70;;;20.10;99.90;;;;;;5024990;28;20049;-90
2022/08/04 04:57:44;;;;;;;;;;;20.40;99.90;;;;;;5039274;28;20124;-90
2022/08/04 05:00:11;;;;;;;15.98;9.85;;;20.60;99.90;;;;;;5008073;28;19929;-90
2022/08/04 05:02:56;;;;;;;15.30;10.13;;;20.70;99.90;;;;;;5007592;28;20406;-90
2022/08/04 05:06:04;;;;;;;15.85;9.63;;;20.80;99.90;;;;;;5008459;28;20621;-91
2022/08/04 05:09:04;;;;;;;16.75;9.27;;;20.70;99.90;;;;;;5025787;28;20049;-90
2022/08/04 05:11:51;;;;;;;16.50;9.80;;;20.80;99.90;;;;;;5025910;28;20072;-91
2022/08/04 05:14:48;;;;;;;16.10;9.73;;;21.10;99.90;;;;;;5046070;28;20092;-91
2022/08/04 05:17:31;;;;;;;15.63;8.63;;;21.40;99.90;;;;;;5033845;28;20074;-92
2022/08/04 05:20:09;;;;;;;14.57;8.70;;;21.60;99.90;;;;;;5034037;28;20110;-92
2022/08/04 05:22:41;;;;;;;11.20;8.27;;;21.90;99.90;;;;;;5032594;28;20046;-89
2022/08/04 05:25:36;;;;;;;13.98;8.90;;;22.30;99.90;;;;;;4999660;28;20045;-94
2022/08/04 05:28:11;;;;;;;13.55;8.15;;;22.90;99.90;;;;;;5023563;28;20092;-93
2022/08/04 05:30:47;;;;;;;13.25;8.20;;;23.60;99.90;;;;;;5025724;28;20046;-91
2022/08/04 05:33:13;;;;;;;10.45;7.10;;;23.80;99.90;;;;;;5009390;28;20046;-93
2022/08/04 05:35:41;;;;;;;11.63;7.07;;;23.90;99.90;;;;;;5011595;28;20052;-91
2022/08/04 05:38:07;;;;;;;14.98;6.80;;;24.10;99.90;;;;;;5001267;28;20060;-93
2022/08/04 05:40:33;;;;;;;13.23;6.85;;;24.00;99.90;;;;;;5012368;28;20029;-92
2022/08/04 05:42:59;;;;;;;8.70;6.40;;;24.10;99.90;;;;;;5001086;28;20037;-92
2022/08/04 05:45:25;;;;;;;13.27;7.07;;;24.10;99.90;;;;;;5016372;28;20087;-91
2022/08/04 05:47:51;;;;;;;11.35;7.25;;;24.00;99.90;;;;;;5029411;28;20045;-93
2022/08/04 05:50:16;;;;;;;9.95;6.50;;;24.40;99.90;;;;;;5006214;28;20053;-93
2022/08/04 05:52:44;;;;;;;10.00;6.18;;;24.90;99.90;;;;;;5005687;28;20050;-91
2022/08/04 05:55:11;;;;;;;12.15;6.15;;;25.40;99.90;;;;;;5012622;28;20050;-91
2022/08/04 05:57:41;;;;;;;11.15;5.85;;;25.60;99.90;;;;;;4997837;28;20113;-92
2022/08/04 06:00:07;;;;;;;11.65;5.72;;;25.80;99.90;;;;;;5011722;28;20125;-92
2022/08/04 06:02:33;;;;;;;9.90;5.95;;;25.80;99.90;;;;;;4983337;28;20058;-91
2022/08/04 06:04:59;;;;;;;9.23;6.22;;;26.30;99.90;;;;;;4996805;28;20050;-92
2022/08/04 06:07:25;;;;;;;13.10;6.28;;;26.50;99.90;;;;;;5012047;28;20089;-92
2022/08/04 06:09:51;;;;;;;11.05;6.32;;;26.20;99.90;;;;;;5012527;28;20042;-93
2022/08/04 06:12:22;;;;;;;10.93;5.72;;;26.30;99.90;;;;;;4995228;28;20120;-90
2022/08/04 06:14:49;;;;;;;9.73;5.85;;;26.80;99.90;;;;;;4994183;28;20050;-90
2022/08/04 06:17:20;;;;;;;10.07;5.93;;;27.40;99.90;;;;;;4994640;28;20042;-90
2022/08/04 06:19:46;;;;;;;9.90;5.50;;;27.50;99.90;;;;;;4995223;28;20089;-90
2022/08/04 06:22:11;;;;;;;8.90;5.28;;;27.30;99.90;;;;;;4995724;28;20085;-91
2022/08/04 06:24:37;;;;;;;10.80;5.05;;;27.50;99.90;;;;;;4995227;28;20057;-91
2022/08/04 06:27:03;;;;;;;10.40;5.38;;;27.70;99.90;;;;;;4994073;28;20054;-91
2022/08/04 06:29:37;;;;;;;9.43;5.05;;;27.50;99.90;;;;;;5010723;28;20115;-90
2022/08/04 06:32:12;;;;;;;9.00;4.90;;;28.00;99.90;;;;;;4979140;28;20050;-88
2022/08/04 06:34:39;;;;;;;7.78;4.80;;;28.30;99.90;;;;;;5028539;28;20052;-89
2022/08/04 06:37:06;;;;;;;10.20;4.90;;;28.60;99.90;;;;;;5014857;28;20053;-91
2022/08/04 06:39:34;;;;;;;7.65;4.65;;;28.60;99.90;;;;;;5016251;28;20140;-92
2022/08/04 06:42:00;;;;;;;8.02;4.70;;;28.80;99.90;;;;;;5014387;28;20381;-92
2022/08/04 06:44:26;;;;;;;7.22;4.47;;;28.70;99.90;;;;;;5017321;28;20146;-91
2022/08/04 06:46:54;;;;;;;9.18;4.60;;;29.00;99.90;;;;;;5017177;28;20491;-91
2022/08/04 06:49:21;;;;;;;7.88;4.78;;;29.70;99.90;;;;;;4998227;28;20046;-91
2022/08/04 06:51:46;;;;;;;6.78;4.40;;;29.60;99.90;;;;;;5021582;28;20138;-87
2022/08/04 06:54:12;;;;;;;8.15;4.30;;;29.80;99.90;;;;;;5014857;28;20068;-93
2022/08/04 06:56:38;;;;;;;7.25;4.22;;;29.70;99.90;;;;;;5017863;28;20038;-93
2022/08/04 06:59:03;;;;;;;8.23;5.10;;;30.00;99.90;;;;;;5019770;28;20057;-95
2022/08/04 07:01:29;;;;;;;7.10;4.60;;;29.90;99.90;;;;;;5018491;28;20063;-93
2022/08/04 07:03:55;;;;;;;8.48;4.25;;;29.40;99.90;;;;;;5019941;28;20061;-92
2022/08/04 07:06:21;;;;;;;5.40;3.78;;;28.80;99.90;;;;;;5024018;28;20041;-92
2022/08/04 07:08:48;;;;;;;7.28;4.25;;;28.60;99.90;;;;;;5018500;28;20049;-91
2022/08/04 07:11:13;;;;;;;7.38;4.15;;;28.30;99.90;;;;;;5034035;28;20045;-95
2022/08/04 07:13:39;;;;;;;6.95;3.92;;;28.50;99.90;;;;;;5001175;28;20080;-94
2022/08/04 07:16:05;;;;;;;7.88;4.15;;;28.60;99.90;;;;;;5017915;28;20073;-93
2022/08/04 07:18:30;;;;;;;6.38;3.85;;;28.90;99.90;;;;;;5019851;28;20095;-94
2022/08/04 07:20:56;;;;;;;9.57;4.38;;;29.20;99.90;;;;;;5017551;28;20042;-92
2022/08/04 07:23:23;;;;;;;5.38;4.03;;;29.90;99.90;;;;;;5021651;28;20051;-90
2022/08/04 07:25:55;;;;;;;8.55;3.70;;;30.20;99.90;;;;;;5018779;28;20100;-94
2022/08/04 07:28:22;;;;;;;7.70;3.93;;;30.20;99.90;;;;;;5020092;28;20474;-92
2022/08/04 07:30:48;;;;;;;7.97;3.95;;;30.10;99.90;;;;;;5017838;28;20052;-91
2022/08/04 07:33:15;;;;;;;7.78;3.38;;;30.30;99.90;;;;;;5005083;28;20049;-94
2022/08/04 07:35:41;;;;;;;8.63;3.78;;;30.10;99.90;;;;;;5026781;28;20095;-94
2022/08/04 07:38:07;;;;;;;8.30;4.43;;;30.00;99.90;;;;;;5030990;28;20077;-93
2022/08/04 07:40:32;;;;;;;8.40;3.55;;;30.00;99.90;;;;;;5024737;28;20118;-93
2022/08/04 07:42:58;;;;;;;10.40;3.55;;;30.20;99.90;;;;;;5022166;28;20046;-92
2022/08/04 07:45:24;;;;;;;5.55;3.45;;;30.80;99.90;;;;;;5028561;28;20042;-91
2022/08/04 07:47:49;;;;;;;6.03;3.38;;;30.60;99.90;;;;;;5043203;28;20075;-94
2022/08/04 07:50:16;;;;;;;8.70;3.50;;;31.40;99.90;;;;;;5020179;28;20049;-95
2022/08/04 07:52:42;;;;;;;10.95;3.80;;;31.30;99.90;;;;;;5026978;28;20050;-94
2022/08/04 07:55:08;;;;;;;5.60;2.95;;;31.10;99.90;;;;;;5010464;28;20148;-92
2022/08/04 07:57:34;;;;;;;5.72;3.40;;;31.30;99.90;;;;;;5017755;28;20474;-89
2022/08/04 07:59:59;;;;;;;7.57;3.30;;;31.60;99.90;;;;;;5016775;28;20461;-88
2022/08/04 08:02:25;;;;;;;7.75;3.35;;;31.30;99.90;;;;;;5017138;28;20093;-89
2022/08/04 08:04:51;;;;;;;6.78;3.25;;;31.40;99.90;;;;;;5011453;28;20054;-94
2022/08/04 08:07:18;;;;;;;4.78;2.83;;;31.60;99.90;;;;;;4974987;28;20099;-92
2022/08/04 08:09:44;;;;;;;7.57;3.10;;;31.70;99.90;;;;;;4978096;28;20054;-89
2022/08/04 08:12:10;;;;;;;4.35;3.00;;;31.70;99.90;;;;;;4977051;28;20045;-90
2022/08/04 08:14:41;;;;;;;5.28;2.97;;;32.00;99.90;;;;;;4971724;28;20053;-92
2022/08/04 08:17:10;;;;;;;7.35;2.97;;;31.80;99.90;;;;;;4974071;28;20136;-94
2022/08/04 08:19:41;;;;;;;8.85;3.00;;;31.70;99.90;;;;;;4987438;28;20049;-93
2022/08/04 08:22:06;;;;;;;7.05;2.83;;;31.80;99.90;;;;;;4981047;28;20049;-89
2022/08/04 08:24:35;;;;;;;8.75;2.60;;;31.60;99.90;;;;;;4976592;28;20045;-92
2022/08/04 08:27:05;;;;;;;4.35;2.30;;;31.40;99.90;;;;;;4992136;28;20402;-89
2022/08/04 08:29:33;;;;;;;6.63;2.70;;;31.60;99.90;;;;;;4991826;28;20045;-87
2022/08/04 08:32:01;;;;;;;9.10;3.17;;;31.80;99.90;;;;;;4995135;28;20113;-88
2022/08/04 08:34:30;;;;;;;5.93;2.60;;;31.90;99.90;;;;;;4995114;28;20041;-93
2022/08/04 08:37:09;;;;;;;6.72;2.67;;;31.60;99.90;;;;;;4995086;28;20061;-91
2022/08/04 08:39:39;;;;;;;4.88;2.55;;;31.60;99.90;;;;;;5002219;28;20084;-91
2022/08/04 08:42:23;;;;;;;6.85;2.97;;;31.30;99.90;;;;;;4981337;28;20049;-92
2022/08/04 08:45:21;;;;;;;8.15;2.53;;;31.70;99.90;;;;;;5012120;28;20045;-92
2022/08/04 08:48:14;;;;;;;7.40;2.65;;;31.60;99.90;;;;;;4996104;28;20049;-92
2022/08/04 08:50:50;;;;;;;6.18;2.83;;;32.00;99.90;;;;;;4998675;28;20513;-89
2022/08/04 08:53:36;;;;;;;4.13;2.45;;;31.90;99.90;;;;;;4997357;28;20049;-88
2022/08/04 08:56:13;;;;;;;6.25;2.70;;;32.20;99.90;;;;;;5000945;28;20046;-87
2022/08/04 08:58:52;;;;;;;5.25;2.30;;;32.00;99.90;;;;;;5000271;28;20073;-93
2022/08/04 09:01:38;;;;;;;5.80;2.45;;;32.50;99.90;;;;;;4995259;28;20133;-90
2022/08/04 09:04:29;;;;;;;5.28;2.80;;;33.00;99.90;;;;;;4975509;28;20068;-88
2022/08/04 09:07:17;;;;;;;5.07;2.42;;;33.30;99.90;;;;;;4996204;28;20061;-92
2022/08/04 09:10:00;;;;;;;6.38;2.33;;;33.80;99.90;;;;;;4995016;28;20049;-88
2022/08/04 09:12:56;;;;;;;6.60;2.65;;;33.40;99.60;;;;;;4996685;28;20049;-88
2022/08/04 09:15:44;;;;;;;3.78;2.63;;;33.70;99.50;;;;;;5003748;28;20069;-85
2022/08/04 09:18:21;;;;;;;7.10;2.42;;;34.00;99.40;;;;;;5009372;28;20129;-87
2022/08/04 09:20:49;;;;;;;7.78;2.88;;;34.80;98.90;;;;;;5005160;28;20455;-89
2022/08/04 09:23:35;;;;;;;6.25;2.40;;;34.30;98.90;;;;;;5010387;28;20053;-93
2022/08/04 09:26:10;;;;;;;7.65;2.40;;;34.50;99.20;;;;;;5036580;28;20050;-91
2022/08/04 09:29:02;;;;;;;8.20;2.83;;;34.70;98.50;;;;;;5017208;28;20045;-93
2022/08/04 09:31:30;;;;;;;4.60;2.40;;;34.80;98.60;;;;;;4984633;28;20092;-91
2022/08/04 09:34:22;;;;;;;4.47;2.65;;;35.40;98.20;;;;;;5014800;28;20543;-90
2022/08/04 09:37:16;;;;;;;4.50;2.58;;;34.90;98.10;;;;;;5002039;28;20061;-90
2022/08/04 09:39:52;;;;;;;6.65;2.95;;;34.20;98.20;;;;;;5025586;28;20053;-91
2022/08/04 09:42:25;;;;;;;8.20;2.50;;;33.70;98.60;;;;;;4998236;28;20054;-89
2022/08/04 09:45:05;;;;;;;8.65;2.92;;;33.70;98.30;;;;;;4999830;28;20476;-93
2022/08/04 09:48:07;;;;;;;7.38;2.65;;;33.60;98.60;;;;;;5003186;28;20045;-93
2022/08/04 09:50:40;;;;;;;5.90;2.80;;;33.60;98.70;;;;;;4988834;28;20053;-94
2022/08/04 09:53:44;;;;;;;4.75;2.60;;;33.50;98.90;;;;;;5022886;28;20140;-95
2022/08/04 09:56:17;;;;;;;4.32;2.80;;;33.50;99.10;;;;;;5028500;28;20077;-89
2022/08/04 09:59:00;;;;;;;5.75;2.55;;;33.60;99.40;;;;;;5015005;28;20053;-92
2022/08/04 10:01:28;;;;;;;5.03;2.60;;;33.50;99.50;;;;;;4991224;28;20506;-94
2022/08/04 10:04:01;;;;;;;9.38;3.40;;;33.50;99.00;;;;;;4979650;28;20050;-92
2022/08/04 10:06:42;;;;;;;5.75;3.28;;;33.20;99.60;;;;;;4997018;28;20049;-93
2022/08/04 10:09:13;;;;;;;8.00;3.83;;;32.80;99.90;;;;;;5012872;28;20057;-91
2022/08/04 10:11:44;;;;;;;7.75;3.60;;;32.50;99.90;;;;;;5031340;28;20056;-94
2022/08/04 10:14:39;;;;;;;5.45;3.30;;;32.40;99.90;;;;;;5014080;28;20446;-90
2022/08/04 10:17:20;;;;;;;6.13;3.75;;;32.50;99.90;;;;;;5012259;28;20049;-87
2022/08/04 10:19:48;;;;;;;8.65;3.72;;;32.40;99.90;;;;;;4998678;28;20037;-90
2022/08/04 10:22:18;;;;;;;5.82;3.50;;;32.40;99.90;;;;;;5013723;28;20053;-89
2022/08/04 10:25:00;;;;;;;9.70;3.33;;;32.40;99.90;;;;;;4999325;28;20111;-95
2022/08/04 10:27:37;;;;;;;8.88;3.67;;;32.00;99.90;;;;;;5018105;28;20099;-94
2022/08/04 10:30:11;;;;;;;9.02;4.00;;;31.80;99.90;;;;;;4991706;28;20050;-94
2022/08/04 10:32:51;;;;;;;5.78;3.55;;;31.70;99.90;;;;;;4974101;28;20487;-95
2022/08/04 10:35:23;;;;;;;8.48;3.80;;;31.90;99.90;;;;;;5015586;28;20116;-95
2022/08/04 10:38:09;;;;;;;9.10;3.80;;;31.90;99.90;;;;;;5029662;28;20049;-94
2022/08/04 10:40:48;;;;;;;7.18;3.83;;;32.00;99.90;;;;;;5037701;28;20080;-94
2022/08/04 10:43:34;;;;;;;6.38;4.30;;;31.90;99.90;;;;;;5000444;28;20091;-91
2022/08/04 10:46:28;;;;;;;;;;;;;;;;;;;;;
2022/08/04 10:49:41;;;;;;;6.13;3.60;;;31.80;99.90;;;;;;5020411;28;20049;-93
2022/08/04 10:52:53;;;;;;;5.47;3.10;;;31.90;99.90;;;;;;5027559;28;20562;-93
2022/08/04 10:55:35;;;;;;;3.85;2.67;;;32.00;99.90;;;;;;4940565;28;20317;-92
2022/08/04 10:58:03;;;;;;;6.80;2.92;;;32.10;99.90;;;;;;4924386;28;20058;-91
2022/08/04 11:00:29;;;;;;;9.75;3.20;;;31.60;99.90;;;;;;4959683;28;20520;-92
2022/08/04 11:03:01;;;;;;;7.40;2.60;;;31.30;99.90;;;;;;4997968;28;20053;-92
2022/08/04 11:05:49;;;;;;;4.00;2.78;;;31.20;99.90;;;;;;5013981;28;20420;-92
2022/08/04 11:08:19;;;;;;;4.28;2.42;;;31.20;99.90;;;;;;4987281;28;20084;-92
2022/08/04 11:10:47;;;;;;;5.00;2.40;;;31.40;99.90;;;;;;5002768;28;20092;-92
2022/08/04 11:13:15;;;;;;;5.55;2.45;;;31.60;99.90;;;;;;5002137;28;20049;-92
2022/08/04 11:15:51;;;;;;;4.80;2.20;;;31.40;99.90;;;;;;5018200;28;20041;-91
2022/08/04 11:18:35;;;;;;;6.55;2.28;;;31.30;99.90;;;;;;5003117;28;20083;-91
2022/08/04 11:21:25;;;;;;;7.03;2.53;;;31.40;99.90;;;;;;5001819;28;20482;-90
2022/08/04 11:24:24;;;;;;;3.17;2.15;;;31.50;99.90;;;;;;5010731;28;20141;-90
2022/08/04 11:26:57;;;;;;;4.45;2.25;;;31.00;99.90;;;;;;5003615;28;20108;-86
2022/08/04 11:29:25;;;;;;;;;;;31.10;99.90;;;;;;4992949;28;20128;-86
2022/08/04 11:31:50;;;;;;;5.47;2.22;;;30.70;99.90;;;;;;4998005;28;20004;-86
2022/08/04 11:34:24;;;;;;;3.08;1.83;;;30.30;99.90;;;;;;4997565;28;20168;-86
2022/08/04 11:37:07;;;;;;;2.55;1.85;;;30.20;99.90;;;;;;4986636;28;20402;-87
2022/08/04 11:39:43;;;;;;;3.42;1.80;;;29.70;99.90;;;;;;4999079;28;20477;-86
2022/08/04 11:42:29;;;;;;;3.15;1.77;;;29.80;99.90;;;;;;5016813;28;20092;-86
2022/08/04 11:45:12;;;;;;;4.13;2.00;;;29.80;99.90;;;;;;5013619;28;20053;-85
2022/08/04 11:47:38;;;;;;;4.68;1.60;;;29.80;99.90;;;;;;5000135;28;20054;-86
2022/08/04 11:50:10;;;;;;;10.25;2.20;;;29.80;99.90;;;;;;5033450;28;20469;-85
2022/08/04 11:52:40;;;;;;;4.43;1.73;;;29.90;99.90;;;;;;4998780;28;20049;-86
2022/08/04 11:55:08;;;;;;;6.30;1.80;;;29.70;99.90;;;;;;5016949;28;20657;-86
2022/08/04 11:57:33;;;;;;;4.80;2.00;;;29.90;99.90;;;;;;5013880;28;20069;-85
2022/08/04 11:59:59;;;;;;;6.20;1.77;;;29.70;99.90;;;;;;5016645;28;20079;-85
2022/08/04 12:02:32;;;;;;;4.20;1.90;;;30.10;99.90;;;;;;5015601;28;20056;-85
2022/08/04 12:04:59;;;;;;;5.55;2.13;;;29.70;99.90;;;;;;4964420;28;20054;-85
2022/08/04 12:07:31;;;;;;;4.97;2.20;;;29.50;99.90;;;;;;4980473;28;20041;-85
2022/08/04 12:09:59;;;;;;;4.82;2.58;;;29.30;99.90;;;;;;4997115;28;20050;-85
2022/08/04 12:12:37;;;;;;;3.60;2.30;;;29.40;99.90;;;;;;4980303;28;20052;-85
2022/08/04 12:15:21;;;;;;;8.32;2.10;;;29.20;99.90;;;;;;4980486;28;20054;-85
2022/08/04 12:18:34;;;;;;;5.18;2.28;;;29.10;99.90;;;;;;4950226;28;20093;-85
2022/08/04 12:21:02;;;;;;;4.50;2.03;;;28.80;99.90;;;;;;4989582;28;20052;-85
2022/08/04 12:23:42;;;;;;;2.92;2.15;;;28.80;99.90;;;;;;4949796;28;20119;-84
2022/08/04 12:26:09;;;;;;;5.10;2.03;;;28.80;99.90;;;;;;4995449;28;20057;-85
2022/08/04 12:28:39;;;;;;;3.03;2.00;;;28.70;99.90;;;;;;4957333;28;20398;-85
2022/08/04 12:31:30;;;;;;;6.63;1.73;;;28.60;99.90;;;;;;4990784;28;20053;-85
2022/08/04 12:33:58;;;;;;;2.25;1.70;;;28.50;99.90;;;;;;5006923;28;20119;-84
2022/08/04 12:36:35;;;;;;;2.72;2.00;;;28.40;99.90;;;;;;4990751;28;20393;-85
2022/08/04 12:39:15;;;;;;;3.97;1.80;;;28.10;99.90;;;;;;4975593;28;20446;-85
2022/08/04 12:41:59;;;;;;;2.17;1.50;;;28.10;99.90;;;;;;4958684;28;20045;-84
2022/08/04 12:44:29;;;;;;;3.83;1.40;;;27.70;99.90;;;;;;5015691;28;20041;-84
2022/08/04 12:46:55;;;;;;;3.80;1.48;;;27.60;99.90;;;;;;5016059;28;20240;-84
2022/08/04 12:49:21;;;;;;;2.15;1.60;;;27.40;99.90;;;;;;4998273;28;20136;-85
2022/08/04 12:51:47;;;;;;;6.72;1.50;;;27.20;99.90;;;;;;4992803;28;20033;-90
2022/08/04 12:54:13;;;;;;;2.78;1.55;;;27.10;99.90;;;;;;4978036;28;20436;-88
2022/08/04 12:56:39;;;;;;;1.58;1.42;;;27.00;99.90;;;;;;4995876;28;20045;-88
2022/08/04 12:59:06;;;;;;;4.30;1.63;;;27.00;99.90;;;;;;4998810;28;20049;-86
2022/08/04 13:01:32;;;;;;;4.63;1.80;;;26.80;99.90;;;;;;4997884;28;20049;-87
2022/08/04 13:04:01;;;;;;;5.53;1.85;;;26.80;99.90;;;;;;5010307;28;20057;-87
2022/08/04 13:06:31;;;;;;;3.63;2.03;;;26.90;99.90;;;;;;5015425;28;20487;-87
2022/08/04 13:09:25;;;;;;;3.67;1.60;;;26.70;99.90;;;;;;5015113;28;20088;-87
2022/08/04 13:11:53;;;;;;;3.10;1.80;;;26.90;99.90;;;;;;5002034;28;20065;-86
2022/08/04 13:14:18;;;;;;;4.90;1.80;;;27.10;99.90;;;;;;4972704;28;20433;-86
2022/08/04 13:16:44;;;;;;;3.00;1.60;;;27.10;99.90;;;;;;4987303;28;20104;-87
2022/08/04 13:19:10;;;;;;;2.53;1.50;;;27.30;99.90;;;;;;5030260;28;20045;-86
2022/08/04 13:21:41;;;;;;;2.55;1.45;;;27.40;99.90;;;;;;5014199;28;20049;-86
2022/08/04 13:24:13;;;;;;;3.63;1.70;;;27.60;99.90;;;;;;5014695;28;20452;-86
2022/08/04 13:26:50;;;;;;;1.83;1.50;;;27.50;99.90;;;;;;5013324;28;20045;-87
2022/08/04 13:29:15;;;;;;;3.22;1.40;;;27.50;99.90;;;;;;4996873;28;20389;-88